Time;durP1;ratioP1;P1;durP2;ratioP2;P2;SDS_P1;SDS_P2;PMS_P1;PMS_P2;Temp;Humidity;BMP_temperature;BMP_pressure;BME280_temperature;BME280_humidity;BME280_pressure;Samples;Min_cycle;Max_cycle;Signal;HPM_P1;HPM_P2
2021/04/10 00:01:05;;;;;;;7.20;3.70;;;10.60;88.50;;;;;;5068053;28;20562;-69
2021/04/10 00:03:32;;;;;;;5.80;3.47;;;10.40;89.10;;;;;;5068915;28;20538;-68
2021/04/10 00:05:58;;;;;;;5.60;4.03;;;10.40;89.50;;;;;;5071489;28;20449;-66
2021/04/10 00:08:24;;;;;;;4.63;3.40;;;10.20;90.30;;;;;;5071548;28;20537;-68
2021/04/10 00:10:51;;;;;;;6.27;5.23;;;10.10;90.50;;;;;;5071330;28;21235;-67
2021/04/10 00:13:18;;;;;;;6.93;3.60;;;10.00;91.10;;;;;;5071203;28;20530;-69
2021/04/10 00:15:44;;;;;;;3.97;3.33;;;10.10;91.20;;;;;;5071399;28;20526;-68
2021/04/10 00:18:11;;;;;;;7.43;3.57;;;10.00;91.30;;;;;;5071122;28;20860;-69
2021/04/10 00:20:38;;;;;;;6.43;3.70;;;10.10;90.20;;;;;;5071165;28;20502;-69
2021/04/10 00:23:04;;;;;;;10.90;4.53;;;10.00;90.90;;;;;;5070870;28;20491;-68
2021/04/10 00:25:31;;;;;;;7.30;4.50;;;10.20;89.30;;;;;;5051886;28;20519;-68
2021/04/10 00:27:57;;;;;;;9.57;4.83;;;10.30;89.50;;;;;;5054368;28;20463;-67
2021/04/10 00:30:25;;;;;;;7.87;4.00;;;10.50;88.80;;;;;;5057424;28;20464;-69
2021/04/10 00:32:51;;;;;;;6.60;4.30;;;10.60;88.00;;;;;;5068696;28;20527;-69
2021/04/10 00:35:18;;;;;;;6.30;5.27;;;10.70;88.80;;;;;;5072067;28;20530;-69
2021/04/10 00:37:44;;;;;;;5.17;3.73;;;10.70;87.50;;;;;;5057941;28;20578;-68
2021/04/10 00:40:12;;;;;;;8.47;4.63;;;10.80;88.00;;;;;;5051822;28;21013;-68
2021/04/10 00:42:39;;;;;;;11.00;5.07;;;10.90;87.70;;;;;;5051931;28;20932;-68
2021/04/10 00:45:08;;;;;;;6.30;4.60;;;10.90;88.20;;;;;;5052321;28;20526;-68
2021/04/10 00:47:35;;;;;;;7.77;4.07;;;10.90;87.90;;;;;;5052073;28;20607;-69
2021/04/10 00:50:03;;;;;;;7.57;4.30;;;11.00;87.40;;;;;;5052171;28;20549;-69
2021/04/10 00:52:31;;;;;;;5.30;3.77;;;11.10;87.40;;;;;;5051863;28;20531;-69
2021/04/10 00:54:59;;;;;;;11.40;5.30;;;11.10;87.20;;;;;;5052008;28;20547;-72
2021/04/10 00:57:25;;;;;;;7.10;3.50;;;11.20;87.40;;;;;;5052027;28;20578;-68
2021/04/10 00:59:52;;;;;;;5.87;3.63;;;11.20;87.40;;;;;;5051871;28;20543;-68
2021/04/10 01:02:19;;;;;;;6.50;4.23;;;11.20;87.30;;;;;;5051659;28;20966;-68
2021/04/10 01:04:46;;;;;;;8.70;4.60;;;11.20;86.70;;;;;;5051860;28;20444;-68
2021/04/10 01:07:12;;;;;;;7.63;3.80;;;11.20;88.30;;;;;;5051901;28;20538;-69
2021/04/10 01:09:39;;;;;;;6.83;4.47;;;11.20;86.60;;;;;;5051847;28;20470;-69
2021/04/10 01:12:23;;;;;;;7.20;3.50;;;11.20;87.70;;;;;;5051718;28;20957;-69
2021/04/10 01:15:01;;;;;;;7.27;3.70;;;11.30;87.10;;;;;;5051246;28;20985;-68
2021/04/10 01:17:32;;;;;;;8.33;3.60;;;11.30;87.60;;;;;;5051610;28;20498;-68
2021/04/10 01:20:28;;;;;;;7.03;3.70;;;11.20;88.30;;;;;;5051417;28;20989;-68
2021/04/10 01:23:20;;;;;;;5.97;3.40;;;11.20;88.90;;;;;;5051350;28;20531;-68
2021/04/10 01:26:06;;;;;;;4.60;3.03;;;11.20;89.80;;;;;;5051507;28;20442;-68
2021/04/10 01:28:47;;;;;;;5.83;3.87;;;11.20;88.20;;;;;;5051566;28;20444;-68
2021/04/10 01:31:17;;;;;;;4.10;2.70;;;11.20;88.40;;;;;;5051230;28;20486;-68
2021/04/10 01:33:47;;;;;;;3.80;2.80;;;11.30;87.40;;;;;;5050807;28;20526;-69
2021/04/10 01:36:16;;;;;;;4.90;2.87;;;11.40;87.70;;;;;;5051076;28;21166;-68
2021/04/10 01:38:47;;;;;;;5.90;3.13;;;11.50;87.60;;;;;;5051217;28;20954;-68
2021/04/10 01:41:16;;;;;;;4.80;2.97;;;11.60;86.90;;;;;;5051131;28;20579;-68
2021/04/10 01:43:44;;;;;;;4.97;2.93;;;11.50;87.90;;;;;;5050635;28;20854;-68
2021/04/10 01:46:12;;;;;;;3.87;2.83;;;11.60;88.20;;;;;;5050778;28;20531;-68
2021/04/10 01:48:42;;;;;;;4.67;2.60;;;11.60;87.20;;;;;;5050749;28;20542;-69
2021/04/10 01:51:10;;;;;;;3.77;2.30;;;11.70;86.00;;;;;;5050542;28;20468;-68
2021/04/10 01:53:37;;;;;;;7.20;2.50;;;11.70;86.70;;;;;;5050729;28;20450;-69
2021/04/10 01:56:05;;;;;;;3.67;2.67;;;11.80;85.90;;;;;;5050755;28;20582;-68
2021/04/10 01:58:33;;;;;;;4.57;2.67;;;11.80;86.50;;;;;;5050994;28;20616;-69
2021/04/10 02:01:01;;;;;;;6.10;3.07;;;11.80;86.40;;;;;;5050740;28;20555;-68
2021/04/10 02:03:29;;;;;;;4.70;2.50;;;11.80;86.10;;;;;;5050277;28;20538;-68
2021/04/10 02:05:57;;;;;;;4.67;2.00;;;11.80;84.70;;;;;;5050731;28;20849;-68
2021/04/10 02:08:25;;;;;;;5.53;2.97;;;11.80;85.80;;;;;;5050837;28;20879;-67
2021/04/10 02:10:52;;;;;;;3.20;2.30;;;11.90;85.40;;;;;;5050499;28;21008;-68
2021/04/10 02:13:20;;;;;;;6.33;2.23;;;11.80;85.00;;;;;;5050293;28;20539;-69
2021/04/10 02:15:49;;;;;;;4.43;2.47;;;11.80;85.70;;;;;;5050331;28;20527;-66
2021/04/10 02:18:18;;;;;;;4.50;1.80;;;11.90;84.90;;;;;;5050832;28;20480;-66
2021/04/10 02:20:44;;;;;;;4.83;2.40;;;12.00;84.70;;;;;;5050740;28;20478;-68
2021/04/10 02:23:13;;;;;;;4.27;1.67;;;11.90;84.50;;;;;;5050255;28;20559;-67
2021/04/10 02:25:39;;;;;;;4.43;2.40;;;12.00;84.50;;;;;;5049571;28;20482;-68
2021/04/10 02:28:06;;;;;;;4.63;2.20;;;12.00;85.10;;;;;;5050323;28;20472;-67
2021/04/10 02:30:32;;;;;;;2.77;1.60;;;11.90;85.10;;;;;;5050322;28;20464;-68
2021/04/10 02:33:02;;;;;;;2.90;1.77;;;11.90;84.90;;;;;;5049832;28;21191;-68
2021/04/10 02:35:33;;;;;;;2.77;1.80;;;11.90;85.10;;;;;;5050531;28;20526;-67
2021/04/10 02:38:01;;;;;;;2.80;1.57;;;11.90;84.30;;;;;;5050369;28;20525;-67
2021/04/10 02:40:32;;;;;;;5.37;1.67;;;12.00;84.60;;;;;;5050292;28;20554;-68
2021/04/10 02:42:59;;;;;;;4.73;2.20;;;12.10;84.30;;;;;;5049737;28;20526;-67
2021/04/10 02:45:27;;;;;;;4.03;1.67;;;12.10;84.50;;;;;;5050087;28;20481;-68
2021/04/10 02:47:58;;;;;;;2.87;2.30;;;12.10;84.40;;;;;;5050041;28;20448;-68
2021/04/10 02:50:26;;;;;;;3.47;1.90;;;12.10;84.00;;;;;;5049904;28;20464;-68
2021/04/10 02:52:55;;;;;;;4.20;2.03;;;12.10;84.70;;;;;;5049782;28;20528;-68
2021/04/10 02:55:30;;;;;;;3.40;1.90;;;12.10;84.90;;;;;;5049985;28;20539;-68
2021/04/10 02:58:00;;;;;;;3.13;1.70;;;12.10;84.70;;;;;;5049927;28;20846;-68
2021/04/10 03:00:27;;;;;;;3.93;1.70;;;12.10;83.60;;;;;;5049895;28;20879;-67
2021/04/10 03:02:55;;;;;;;4.33;2.10;;;12.10;84.50;;;;;;5049965;28;20444;-69
2021/04/10 03:05:22;;;;;;;2.60;1.60;;;12.10;84.10;;;;;;5049791;28;20445;-68
2021/04/10 03:07:49;;;;;;;2.70;1.67;;;12.10;85.00;;;;;;5049771;28;20535;-68
2021/04/10 03:10:17;;;;;;;2.70;1.47;;;12.00;86.10;;;;;;5049748;28;20475;-68
2021/04/10 03:12:44;;;;;;;6.77;2.27;;;12.00;85.20;;;;;;5049595;28;20443;-67
2021/04/10 03:15:13;;;;;;;3.73;1.67;;;12.00;85.10;;;;;;5049874;28;20448;-68
2021/04/10 03:17:41;;;;;;;3.53;1.67;;;12.10;85.20;;;;;;5049987;28;20483;-68
2021/04/10 03:20:10;;;;;;;3.07;1.70;;;12.10;85.10;;;;;;5050093;28;20464;-68
2021/04/10 03:22:37;;;;;;;4.37;1.80;;;12.10;86.10;;;;;;5049691;28;20444;-68
2021/04/10 03:25:05;;;;;;;5.67;1.93;;;12.10;84.90;;;;;;5050268;28;21149;-67
2021/04/10 03:27:32;;;;;;;6.77;1.80;;;12.10;84.90;;;;;;5050108;28;20532;-67
2021/04/10 03:30:00;;;;;;;3.33;1.50;;;12.10;86.80;;;;;;5049815;28;20478;-67
2021/04/10 03:32:27;;;;;;;3.00;2.10;;;12.10;85.60;;;;;;5049368;28;20542;-67
2021/04/10 03:34:55;;;;;;;3.30;1.47;;;12.20;85.20;;;;;;5049683;28;20535;-67
2021/04/10 03:37:22;;;;;;;2.20;1.60;;;12.20;85.70;;;;;;5050908;28;20480;-67
2021/04/10 03:39:49;;;;;;;4.63;1.50;;;12.20;86.30;;;;;;5053261;28;20464;-67
2021/04/10 03:42:21;;;;;;;6.67;1.63;;;12.20;86.60;;;;;;5053133;28;20546;-67
2021/04/10 03:44:48;;;;;;;2.70;1.53;;;12.20;88.70;;;;;;5053305;28;21034;-67
2021/04/10 03:47:15;;;;;;;2.70;1.43;;;12.10;90.60;;;;;;5053148;28;20503;-69
2021/04/10 03:49:41;;;;;;;2.50;1.50;;;12.00;90.90;;;;;;5053283;28;20495;-67
2021/04/10 03:52:07;;;;;;;2.60;1.97;;;12.00;90.40;;;;;;5053294;28;20444;-67
2021/04/10 03:54:34;;;;;;;5.37;1.87;;;12.10;90.40;;;;;;5052930;28;20451;-68
2021/04/10 03:57:00;;;;;;;3.90;1.80;;;12.20;90.60;;;;;;5052970;28;20475;-68
2021/04/10 03:59:28;;;;;;;2.53;1.50;;;12.30;90.80;;;;;;5053121;28;20563;-67
2021/04/10 04:01:55;;;;;;;3.40;1.90;;;12.20;91.30;;;;;;5053058;28;20438;-69
2021/04/10 04:04:21;;;;;;;2.60;1.33;;;12.20;90.90;;;;;;5052477;28;20550;-68
2021/04/10 04:06:47;;;;;;;5.73;1.80;;;12.30;91.10;;;;;;5053154;28;20440;-67
2021/04/10 04:09:14;;;;;;;3.33;1.77;;;12.20;91.30;;;;;;5052854;28;20539;-67
2021/04/10 04:11:40;;;;;;;2.97;1.87;;;12.20;91.40;;;;;;5052880;28;20443;-69
2021/04/10 04:14:07;;;;;;;3.10;1.77;;;12.20;91.60;;;;;;5052689;28;20535;-67
2021/04/10 04:16:33;;;;;;;4.07;1.70;;;12.20;92.10;;;;;;5052440;28;20472;-67
2021/04/10 04:19:00;;;;;;;5.33;1.93;;;12.10;91.70;;;;;;5052740;28;20536;-68
2021/04/10 04:21:27;;;;;;;3.87;1.63;;;12.20;92.00;;;;;;5052915;28;20517;-68
2021/04/10 04:23:53;;;;;;;3.80;1.37;;;12.10;92.00;;;;;;5052559;28;20523;-68
2021/04/10 04:26:19;;;;;;;4.63;1.67;;;12.10;92.00;;;;;;5052854;28;20894;-68
2021/04/10 04:28:46;;;;;;;7.70;1.77;;;12.10;92.00;;;;;;5052734;28;20479;-67
2021/04/10 04:31:12;;;;;;;4.13;1.57;;;12.10;91.90;;;;;;5052553;28;20496;-67
2021/04/10 04:33:39;;;;;;;6.40;1.53;;;12.10;92.40;;;;;;5052185;28;20527;-67
2021/04/10 04:36:07;;;;;;;2.43;1.50;;;12.10;92.00;;;;;;5052711;28;20448;-66
2021/04/10 04:38:33;;;;;;;3.03;1.70;;;12.00;92.10;;;;;;5052748;28;20446;-70
2021/04/10 04:41:00;;;;;;;2.70;1.70;;;12.00;94.00;;;;;;5052221;28;20510;-67
2021/04/10 04:43:26;;;;;;;3.67;1.37;;;11.60;95.70;;;;;;5052052;28;20531;-68
2021/04/10 04:45:52;;;;;;;4.00;1.33;;;11.30;97.20;;;;;;5052405;28;20491;-66
2021/04/10 04:48:19;;;;;;;3.30;1.50;;;11.00;98.20;;;;;;5051840;28;20852;-67
2021/04/10 04:50:45;;;;;;;5.10;1.77;;;10.80;99.10;;;;;;5051808;28;20464;-66
2021/04/10 04:53:12;;;;;;;2.73;1.60;;;10.70;98.70;;;;;;5051957;28;20544;-66
2021/04/10 04:55:40;;;;;;;4.07;1.50;;;10.60;99.00;;;;;;5052402;28;20589;-65
2021/04/10 04:58:06;;;;;;;3.90;1.60;;;10.60;99.30;;;;;;5052173;28;20484;-67
2021/04/10 05:00:33;;;;;;;6.30;2.03;;;10.60;99.00;;;;;;5052054;28;20555;-66
2021/04/10 05:03:00;;;;;;;2.33;1.40;;;10.70;98.30;;;;;;5051725;28;20444;-66
2021/04/10 05:05:26;;;;;;;3.00;1.40;;;10.80;98.80;;;;;;5051928;28;20582;-66
2021/04/10 05:07:53;;;;;;;3.73;1.50;;;10.90;97.60;;;;;;5051732;28;20527;-67
2021/04/10 05:10:20;;;;;;;2.37;1.27;;;11.00;97.90;;;;;;5051715;28;20550;-66
2021/04/10 05:12:47;;;;;;;2.00;1.30;;;11.10;97.40;;;;;;5051410;28;20527;-67
2021/04/10 05:15:14;;;;;;;2.10;1.43;;;11.10;97.70;;;;;;5051711;28;21216;-67
2021/04/10 05:17:40;;;;;;;2.37;1.47;;;11.10;98.00;;;;;;5051541;28;21101;-67
2021/04/10 05:20:08;;;;;;;3.37;1.47;;;11.10;98.00;;;;;;5051441;28;20597;-67
2021/04/10 05:22:34;;;;;;;2.33;1.40;;;11.00;98.80;;;;;;5051324;28;20531;-66
2021/04/10 05:25:01;;;;;;;4.17;1.60;;;10.90;98.80;;;;;;5051517;28;20527;-67
2021/04/10 05:27:28;;;;;;;2.93;1.60;;;10.80;99.50;;;;;;5051474;28;20535;-68
2021/04/10 05:29:54;;;;;;;3.10;1.40;;;10.70;99.30;;;;;;5051430;28;20468;-67
2021/04/10 05:32:21;;;;;;;2.20;1.80;;;10.70;99.90;;;;;;5051177;28;20448;-69
2021/04/10 05:34:47;;;;;;;2.60;1.43;;;10.70;99.90;;;;;;5051042;28;20534;-66
2021/04/10 05:37:13;;;;;;;4.53;1.80;;;10.70;99.90;;;;;;5051107;28;21010;-67
2021/04/10 05:39:40;;;;;;;3.30;1.63;;;10.60;99.90;;;;;;5050927;28;20992;-68
2021/04/10 05:42:07;;;;;;;2.23;1.30;;;10.70;99.90;;;;;;5051044;28;20988;-68
2021/04/10 05:44:34;;;;;;;3.87;1.60;;;10.80;99.90;;;;;;5051018;28;20820;-66
2021/04/10 05:47:01;;;;;;;4.87;1.60;;;10.90;99.90;;;;;;5051120;28;20935;-66
2021/04/10 05:49:27;;;;;;;4.13;2.03;;;10.90;99.90;;;;;;5050748;28;20556;-66
2021/04/10 05:51:53;;;;;;;3.40;1.57;;;11.00;99.90;;;;;;5050999;28;20535;-67
2021/04/10 05:54:20;;;;;;;6.00;1.50;;;11.00;99.90;;;;;;5050498;28;20477;-66
2021/04/10 05:56:46;;;;;;;2.83;1.60;;;11.10;99.50;;;;;;5050818;28;20641;-66
2021/04/10 05:59:13;;;;;;;3.27;2.10;;;11.10;99.90;;;;;;5050924;28;20531;-67
2021/04/10 06:01:40;;;;;;;3.37;2.07;;;11.20;99.90;;;;;;5050782;28;20543;-66
2021/04/10 06:04:06;;;;;;;2.87;1.77;;;11.20;99.70;;;;;;5050265;28;20884;-66
2021/04/10 06:06:33;;;;;;;2.83;1.80;;;11.30;99.80;;;;;;5050346;28;20538;-67
2021/04/10 06:08:59;;;;;;;4.67;2.27;;;11.30;99.60;;;;;;5050250;28;20590;-66
2021/04/10 06:11:27;;;;;;;4.60;1.97;;;11.30;99.50;;;;;;5050005;28;20543;-67
2021/04/10 06:13:54;;;;;;;3.90;1.80;;;11.40;99.40;;;;;;5049924;28;20538;-67
2021/04/10 06:16:20;;;;;;;2.57;1.70;;;11.40;99.50;;;;;;5050323;28;20969;-67
2021/04/10 06:18:47;;;;;;;5.23;1.90;;;11.40;99.50;;;;;;5050278;28;20467;-66
2021/04/10 06:21:14;;;;;;;7.13;1.90;;;11.40;98.80;;;;;;5050206;28;21177;-67
2021/04/10 06:23:42;;;;;;;6.70;1.50;;;11.50;98.60;;;;;;5049905;28;20524;-65
2021/04/10 06:26:09;;;;;;;4.40;1.47;;;11.50;98.70;;;;;;5049898;28;20509;-67
2021/04/10 06:28:35;;;;;;;3.37;1.50;;;11.50;98.50;;;;;;5050145;28;20530;-68
2021/04/10 06:31:02;;;;;;;4.17;1.53;;;11.50;98.10;;;;;;5050027;28;20460;-68
2021/04/10 06:33:28;;;;;;;4.43;1.60;;;11.50;98.10;;;;;;5049463;28;20501;-67
2021/04/10 06:35:55;;;;;;;3.93;1.80;;;11.60;98.00;;;;;;5047772;28;20505;-66
2021/04/10 06:38:22;;;;;;;2.10;1.53;;;11.50;98.30;;;;;;5049234;28;20575;-67
2021/04/10 06:40:49;;;;;;;2.63;1.67;;;11.50;97.90;;;;;;5049573;28;20487;-67
2021/04/10 06:43:16;;;;;;;4.57;1.50;;;11.60;98.30;;;;;;5049614;28;20535;-67
2021/04/10 06:45:42;;;;;;;2.40;1.50;;;11.60;98.10;;;;;;5049534;28;20460;-69
2021/04/10 06:48:13;;;;;;;3.70;2.17;;;11.60;98.10;;;;;;5046270;28;21108;-66
2021/04/10 06:50:41;;;;;;;3.73;1.67;;;11.60;97.90;;;;;;5049521;28;20463;-66
2021/04/10 06:53:13;;;;;;;3.07;1.60;;;11.60;98.30;;;;;;5049204;28;20444;-67
2021/04/10 06:55:45;;;;;;;6.80;2.30;;;11.70;98.20;;;;;;5049700;28;20459;-66
2021/04/10 06:58:17;;;;;;;2.40;1.40;;;11.70;98.00;;;;;;5049480;28;20558;-66
2021/04/10 07:00:44;;;;;;;3.83;1.70;;;11.80;98.10;;;;;;5049595;28;20523;-66
2021/04/10 07:03:12;;;;;;;3.13;1.70;;;11.80;97.70;;;;;;5049415;28;21316;-66
2021/04/10 07:05:38;;;;;;;5.50;1.77;;;11.80;98.20;;;;;;5049504;28;20474;-66
2021/04/10 07:08:06;;;;;;;2.70;1.40;;;11.90;98.30;;;;;;5049427;28;20523;-65
2021/04/10 07:10:34;;;;;;;1.80;1.20;;;11.90;98.00;;;;;;5029550;28;20468;-66
2021/04/10 07:13:00;;;;;;;2.73;1.23;;;11.90;98.00;;;;;;5031657;28;20531;-66
2021/04/10 07:15:27;;;;;;;2.87;1.83;;;11.90;97.90;;;;;;5044236;28;21166;-66
2021/04/10 07:17:54;;;;;;;4.80;1.47;;;11.90;98.10;;;;;;5053026;28;20474;-66
2021/04/10 07:20:25;;;;;;;2.97;2.27;;;11.90;98.10;;;;;;5053120;28;20491;-67
2021/04/10 07:22:59;;;;;;;3.00;1.67;;;11.90;98.20;;;;;;5052832;28;20450;-67
2021/04/10 07:25:26;;;;;;;2.20;1.47;;;12.00;98.50;;;;;;5052301;28;20999;-68
2021/04/10 07:27:54;;;;;;;3.47;1.90;;;12.00;98.40;;;;;;5053316;28;20538;-67
2021/04/10 07:30:22;;;;;;;3.43;1.70;;;12.00;98.30;;;;;;5052663;28;20852;-67
2021/04/10 07:32:48;;;;;;;2.20;1.53;;;12.10;98.30;;;;;;5053044;28;20447;-67
2021/04/10 07:35:17;;;;;;;2.20;1.43;;;12.10;97.90;;;;;;5053520;28;20471;-67
2021/04/10 07:37:46;;;;;;;7.30;1.63;;;12.20;98.10;;;;;;5053179;28;20483;-67
2021/04/10 07:40:17;;;;;;;4.63;1.77;;;12.20;97.80;;;;;;5053287;28;20550;-67
2021/04/10 07:42:45;;;;;;;3.30;1.60;;;12.30;97.90;;;;;;5052810;28;20520;-67
2021/04/10 07:45:29;;;;;;;2.73;1.40;;;12.40;97.90;;;;;;5052641;28;20535;-67
2021/04/10 07:48:02;;;;;;;3.00;1.53;;;12.40;98.00;;;;;;5053071;28;20458;-67
2021/04/10 07:50:29;;;;;;;5.93;1.93;;;12.40;97.90;;;;;;5052482;28;20471;-68
2021/04/10 07:52:56;;;;;;;3.97;2.50;;;12.40;98.40;;;;;;5052464;28;20448;-67
2021/04/10 07:55:36;;;;;;;1.73;1.10;;;12.30;97.60;;;;;;5052660;28;20474;-67
2021/04/10 07:58:26;;;;;;;3.40;1.17;;;12.20;97.80;;;;;;5052881;28;20562;-68
2021/04/10 08:00:56;;;;;;;3.00;1.37;;;12.20;98.00;;;;;;5052632;28;20906;-68
2021/04/10 08:03:25;;;;;;;2.53;1.83;;;12.10;98.30;;;;;;5052471;28;20444;-68
2021/04/10 08:05:52;;;;;;;3.73;1.57;;;12.10;98.20;;;;;;5052576;28;20495;-68
2021/04/10 08:08:19;;;;;;;3.20;1.30;;;12.10;98.30;;;;;;5052566;28;20497;-68
2021/04/10 08:10:46;;;;;;;2.73;1.43;;;12.10;98.70;;;;;;5052434;28;20464;-67
2021/04/10 08:13:13;;;;;;;4.53;2.03;;;12.10;98.40;;;;;;5052355;28;20522;-67
2021/04/10 08:15:39;;;;;;;2.70;1.50;;;12.20;98.50;;;;;;5052813;28;20456;-67
2021/04/10 08:20:58;;;;;;;3.20;1.33;;;12.20;98.20;;;;;;5168112;27;21042;-70
2021/04/10 08:23:25;;;;;;;2.97;1.80;;;12.10;98.10;;;;;;5161369;27;20545;-70
2021/04/10 08:25:51;;;;;;;2.70;1.47;;;12.20;98.60;;;;;;5170668;27;20502;-70
2021/04/10 08:28:18;;;;;;;3.70;2.13;;;12.10;98.30;;;;;;5169754;27;20470;-71
2021/04/10 08:30:45;;;;;;;3.05;1.80;;;12.20;98.40;;;;;;5169526;27;20429;-70
2021/04/10 08:33:12;;;;;;;3.30;1.80;;;12.20;98.90;;;;;;5108795;22;20249;-68
2021/04/10 08:35:39;;;;;;;3.07;1.40;;;12.20;98.90;;;;;;5039250;28;20446;-67
2021/04/10 08:38:06;;;;;;;5.10;1.83;;;12.20;99.50;;;;;;5047267;28;20439;-68
2021/04/10 08:40:35;;;;;;;2.70;1.50;;;12.10;99.80;;;;;;5046983;28;20491;-67
2021/04/10 08:43:04;;;;;;;3.37;1.80;;;11.90;99.90;;;;;;5046976;28;20527;-68
2021/04/10 08:45:31;;;;;;;2.33;1.17;;;11.80;99.90;;;;;;5039418;28;20540;-68
2021/04/10 08:48:02;;;;;;;2.80;1.50;;;11.80;99.90;;;;;;5022293;28;20449;-68
2021/04/10 08:50:30;;;;;;;5.83;1.67;;;11.80;99.90;;;;;;5025696;28;20536;-68
2021/04/10 08:52:56;;;;;;;3.20;1.60;;;11.70;99.90;;;;;;5025548;28;20484;-67
2021/04/10 08:55:24;;;;;;;3.10;1.80;;;11.60;99.90;;;;;;5026016;28;20480;-68
2021/04/10 08:57:50;;;;;;;2.87;1.60;;;11.50;99.90;;;;;;5022567;28;20659;-68
2021/04/10 09:00:22;;;;;;;3.37;1.93;;;11.50;99.90;;;;;;5032499;28;20519;-69
2021/04/10 09:02:54;;;;;;;3.07;1.60;;;11.50;99.90;;;;;;5031612;28;20440;-68
2021/04/10 09:05:22;;;;;;;3.17;1.90;;;11.60;99.90;;;;;;5021567;28;20475;-68
2021/04/10 09:08:04;;;;;;;3.73;2.10;;;11.60;99.90;;;;;;5030276;28;20583;-66
2021/04/10 09:10:54;;;;;;;3.23;1.17;;;11.70;99.90;;;;;;5027984;28;20462;-67
2021/04/10 09:13:41;;;;;;;2.50;1.30;;;11.80;99.90;;;;;;5026014;28;20598;-67
2021/04/10 09:16:38;;;;;;;2.10;1.30;;;12.00;99.90;;;;;;5022064;28;20964;-68
2021/04/10 09:19:12;;;;;;;3.00;1.70;;;12.20;99.90;;;;;;5020266;28;20617;-67
2021/04/10 09:21:45;;;;;;;2.20;1.60;;;12.30;99.90;;;;;;5014583;28;20464;-67
2021/04/10 09:24:39;;;;;;;3.50;1.40;;;12.50;99.90;;;;;;5035356;28;20445;-67
2021/04/10 09:27:09;;;;;;;3.53;1.40;;;12.60;99.90;;;;;;5018732;28;20460;-68
2021/04/10 09:29:43;;;;;;;2.60;1.73;;;12.60;99.90;;;;;;5022141;28;20993;-67
2021/04/10 09:32:10;;;;;;;3.07;1.63;;;12.60;99.90;;;;;;5012991;28;20467;-68
2021/04/10 09:34:52;;;;;;;3.50;2.27;;;12.70;99.90;;;;;;5012325;28;20460;-68
2021/04/10 09:37:57;;;;;;;2.43;1.40;;;12.80;99.90;;;;;;5012855;28;20472;-67
2021/04/10 09:40:26;;;;;;;2.63;2.00;;;12.80;99.30;;;;;;5028570;28;20488;-67
2021/04/10 09:43:02;;;;;;;1.83;1.13;;;12.80;99.30;;;;;;5017091;28;20529;-68
2021/04/10 09:45:31;;;;;;;3.70;1.43;;;12.90;99.60;;;;;;5012274;28;20528;-68
2021/04/10 09:48:36;;;;;;;2.50;1.53;;;12.90;99.50;;;;;;5012876;28;20458;-68
2021/04/10 09:51:13;;;;;;;5.30;1.40;;;12.90;98.90;;;;;;5000167;28;20478;-68
2021/04/10 09:53:47;;;;;;;2.80;1.60;;;13.00;98.80;;;;;;5007214;28;20482;-68
2021/04/10 09:56:15;;;;;;;3.30;1.80;;;12.90;98.50;;;;;;5022084;28;20893;-68
2021/04/10 09:58:55;;;;;;;2.53;1.60;;;13.00;98.40;;;;;;5021955;28;20444;-67
2021/04/10 10:01:24;;;;;;;3.30;1.40;;;13.00;98.20;;;;;;5030863;28;20495;-67
2021/04/10 10:03:51;;;;;;;2.60;1.57;;;13.20;97.80;;;;;;5024054;28;20473;-68
2021/04/10 10:06:23;;;;;;;2.90;1.23;;;13.30;97.00;;;;;;5018573;28;20529;-68
2021/04/10 10:08:50;;;;;;;3.60;1.60;;;13.40;97.30;;;;;;5013957;28;20446;-68
2021/04/10 10:11:17;;;;;;;2.47;1.40;;;13.50;96.80;;;;;;5014859;28;20836;-68
2021/04/10 10:13:44;;;;;;;3.77;1.23;;;13.40;96.90;;;;;;5016964;28;20561;-68
2021/04/10 10:16:12;;;;;;;2.47;1.30;;;13.40;96.80;;;;;;5021139;28;20464;-69
2021/04/10 10:18:40;;;;;;;3.30;1.83;;;13.40;97.30;;;;;;5014447;28;20582;-67
2021/04/10 10:21:09;;;;;;;3.37;1.73;;;13.50;97.10;;;;;;5019188;28;20500;-67
2021/04/10 10:23:39;;;;;;;3.83;1.57;;;13.60;96.80;;;;;;5029460;28;21150;-67
2021/04/10 10:26:08;;;;;;;2.60;1.43;;;13.60;96.20;;;;;;5013423;28;20445;-68
2021/04/10 10:28:36;;;;;;;1.90;1.30;;;13.70;96.10;;;;;;4999619;28;20585;-67
2021/04/10 10:31:05;;;;;;;4.90;1.60;;;13.70;95.60;;;;;;5010304;28;20497;-67
2021/04/10 10:33:32;;;;;;;2.60;1.30;;;13.80;96.10;;;;;;5008218;28;20564;-67
2021/04/10 10:36:00;;;;;;;1.90;1.13;;;13.90;97.10;;;;;;5014573;28;20546;-67
2021/04/10 10:38:31;;;;;;;3.53;1.47;;;14.00;96.70;;;;;;5017937;28;20448;-67
2021/04/10 10:40:57;;;;;;;3.63;1.60;;;14.10;95.30;;;;;;5021377;28;20564;-67
2021/04/10 10:43:25;;;;;;;2.90;1.70;;;14.20;95.20;;;;;;5024297;28;21132;-67
2021/04/10 10:45:53;;;;;;;4.33;2.00;;;14.50;95.60;;;;;;5010586;28;20458;-67
2021/04/10 10:48:25;;;;;;;2.53;1.80;;;14.70;95.60;;;;;;5023592;28;20479;-67
2021/04/10 10:50:55;;;;;;;3.80;1.70;;;14.80;96.30;;;;;;5029444;28;20523;-67
2021/04/10 10:53:23;;;;;;;3.27;1.90;;;14.90;95.60;;;;;;5028971;28;20494;-67
2021/04/10 10:56:08;;;;;;;3.80;2.43;;;15.30;94.80;;;;;;5012960;28;21319;-66
2021/04/10 10:58:38;;;;;;;2.87;2.10;;;15.50;95.30;;;;;;5004916;28;20474;-67
2021/04/10 11:01:18;;;;;;;3.73;1.83;;;15.80;93.10;;;;;;5009243;28;20498;-66
2021/04/10 11:03:48;;;;;;;2.60;1.47;;;16.10;93.10;;;;;;5009143;28;20446;-67
2021/04/10 11:06:21;;;;;;;2.30;1.47;;;16.40;92.10;;;;;;5004491;28;20537;-67
2021/04/10 11:08:49;;;;;;;3.13;1.73;;;16.50;92.10;;;;;;5006087;28;20492;-67
2021/04/10 11:11:16;;;;;;;2.60;1.60;;;16.60;90.90;;;;;;5008275;28;20517;-67
2021/04/10 11:13:45;;;;;;;2.17;1.30;;;16.90;91.00;;;;;;5008859;28;20450;-68
2021/04/10 11:16:13;;;;;;;3.10;1.30;;;17.20;90.80;;;;;;5009347;28;20540;-67
2021/04/10 11:18:40;;;;;;;2.70;1.53;;;17.50;89.70;;;;;;5008791;28;20545;-68
2021/04/10 11:21:23;;;;;;;3.27;1.50;;;18.00;90.30;;;;;;5008649;28;20520;-68
2021/04/10 11:24:12;;;;;;;3.07;1.40;;;18.20;84.40;;;;;;5010320;28;20552;-67
2021/04/10 11:26:46;;;;;;;2.43;1.70;;;18.40;86.20;;;;;;5027705;28;20449;-67
2021/04/10 11:29:17;;;;;;;3.00;1.20;;;18.70;84.50;;;;;;5028081;28;20444;-67
2021/04/10 11:31:43;;;;;;;2.27;1.30;;;18.80;84.40;;;;;;5028585;28;20464;-67
2021/04/10 11:34:29;;;;;;;3.20;1.30;;;19.10;84.40;;;;;;5027842;28;20923;-67
2021/04/10 11:36:56;;;;;;;3.47;1.50;;;19.00;81.90;;;;;;5013647;28;21052;-67
2021/04/10 11:39:23;;;;;;;1.80;1.20;;;18.80;82.30;;;;;;4989706;28;20578;-67
2021/04/10 11:41:50;;;;;;;3.43;1.70;;;18.70;82.00;;;;;;5003896;28;20488;-67
2021/04/10 11:44:18;;;;;;;3.83;1.50;;;18.60;81.50;;;;;;5015249;28;20577;-66
2021/04/10 11:46:45;;;;;;;3.23;1.80;;;18.60;81.70;;;;;;5009117;28;20900;-67
2021/04/10 11:49:23;;;;;;;4.80;1.40;;;18.80;81.20;;;;;;5012240;28;20984;-66
2021/04/10 11:51:50;;;;;;;2.60;1.47;;;19.00;80.70;;;;;;5017384;28;20449;-68
2021/04/10 11:54:30;;;;;;;3.23;1.30;;;19.00;81.80;;;;;;5013768;28;20480;-67
2021/04/10 11:56:57;;;;;;;3.30;1.30;;;19.10;78.70;;;;;;5009492;28;21200;-68
2021/04/10 11:59:32;;;;;;;2.87;1.30;;;19.00;79.10;;;;;;5004994;28;20482;-67
2021/04/10 12:02:01;;;;;;;2.77;1.33;;;19.10;79.40;;;;;;5008188;28;20453;-68
2021/04/10 12:04:29;;;;;;;5.10;1.60;;;19.30;78.30;;;;;;5008678;28;21000;-67
2021/04/10 12:07:06;;;;;;;6.70;1.60;;;19.60;81.70;;;;;;5008225;28;20536;-67
2021/04/10 12:09:36;;;;;;;2.10;1.23;;;19.80;79.50;;;;;;5005698;28;20541;-68
2021/04/10 12:12:04;;;;;;;2.00;1.20;;;20.00;77.60;;;;;;5021398;28;20437;-68
2021/04/10 12:14:30;;;;;;;2.00;1.10;;;20.40;77.00;;;;;;5026357;28;20928;-68
2021/04/10 12:16:57;;;;;;;5.20;1.40;;;20.80;76.50;;;;;;5023345;28;20527;-68
2021/04/10 12:19:24;;;;;;;2.60;1.40;;;21.80;72.70;;;;;;5027233;28;21077;-68
2021/04/10 12:21:51;;;;;;;2.83;1.30;;;22.70;70.70;;;;;;5028777;28;20452;-68
2021/04/10 12:24:17;;;;;;;2.53;1.50;;;23.20;67.50;;;;;;5028195;28;20445;-68
2021/04/10 12:26:44;;;;;;;4.13;1.70;;;24.30;66.00;;;;;;5028291;28;20531;-68
2021/04/10 12:29:11;;;;;;;2.40;1.23;;;25.00;62.10;;;;;;5027971;28;20537;-68
2021/04/10 12:31:38;;;;;;;2.70;1.50;;;24.90;62.40;;;;;;5028418;28;20977;-68
2021/04/10 12:34:04;;;;;;;3.10;1.80;;;24.50;59.10;;;;;;5028968;28;20480;-69
2021/04/10 12:36:31;;;;;;;2.83;1.37;;;23.80;59.40;;;;;;5029372;28;20478;-68
2021/04/10 12:38:58;;;;;;;3.80;1.77;;;24.20;63.00;;;;;;5029204;28;20444;-68
2021/04/10 12:41:25;;;;;;;4.93;1.53;;;24.50;62.60;;;;;;5013573;28;20474;-71
2021/04/10 12:43:52;;;;;;;2.63;1.40;;;24.00;59.40;;;;;;4996527;28;20478;-69
2021/04/10 12:46:19;;;;;;;2.30;1.20;;;24.00;62.20;;;;;;4988965;28;20533;-69
2021/04/10 12:48:46;;;;;;;3.20;1.90;;;24.80;59.40;;;;;;5002145;28;20968;-68
2021/04/10 12:51:13;;;;;;;3.40;1.50;;;24.70;57.60;;;;;;5019293;28;20910;-69
2021/04/10 12:53:40;;;;;;;4.37;1.50;;;25.00;58.20;;;;;;5019704;28;20476;-69
2021/04/10 12:56:07;;;;;;;3.40;1.20;;;24.80;59.90;;;;;;5027985;28;20891;-69
2021/04/10 12:58:33;;;;;;;2.30;1.30;;;25.10;59.60;;;;;;5028429;28;20441;-69